Time,TemperatureF,DewpointF,PressureIn,WindDirection,WindDirectionDegrees,WindSpeedMPH,WindSpeedGustMPH,Humidity,HourlyPrecipIn,Conditions,Clouds,dailyrainin,SoftwareType,DateUTC
2013-05-21 00:00:00,56.4,49.3,29.31,SSW,202,0.0,0.0,77,0.00,,,-99.99,VWS V12.07,2013-05-21 05:00:00,
2013-05-21 00:05:00,56.3,49.2,29.31,SSW,202,0.0,0.0,77,0.00,,,-99.99,VWS V12.07,2013-05-21 05:05:00,
2013-05-21 00:10:00,56.3,49.5,29.31,SSW,202,0.0,0.0,78,0.00,,,-99.99,VWS V12.07,2013-05-21 05:10:00,
2013-05-21 00:15:00,56.3,49.5,29.31,SSW,202,0.0,0.0,78,0.00,,,-99.99,VWS V12.07,2013-05-21 05:15:00,
2013-05-21 00:20:00,56.1,49.3,29.31,SSW,202,0.0,0.0,78,0.00,,,-99.99,VWS V12.07,2013-05-21 05:20:00,
2013-05-21 00:25:00,56.1,49.3,29.31,SSW,202,0.0,0.0,78,0.00,,,-99.99,VWS V12.07,2013-05-21 05:25:00,
2013-05-21 00:30:00,55.9,49.2,29.31,SSW,202,0.0,0.0,78,0.00,,,-99.99,VWS V12.07,2013-05-21 05:30:00,
2013-05-21 00:35:00,55.9,49.5,29.30,SSW,202,0.0,0.0,79,0.00,,,-99.99,VWS V12.07,2013-05-21 05:35:00,
2013-05-21 00:40:00,55.9,49.5,29.30,SSW,202,0.0,0.0,79,0.00,,,-99.99,VWS V12.07,2013-05-21 05:40:00,
2013-05-21 00:45:00,56.1,50.0,29.30,SSW,202,0.0,0.0,80,0.00,,,-99.99,VWS V12.07,2013-05-21 05:45:00,
2013-05-21 00:50:00,56.1,50.0,29.30,SSW,202,0.0,0.0,80,0.00,,,-99.99,VWS V12.07,2013-05-21 05:50:00,
2013-05-21 00:55:00,56.3,50.2,29.29,SSW,202,0.0,0.0,80,0.00,,,-99.99,VWS V12.07,2013-05-21 05:55:00,
2013-05-21 01:00:00,56.3,50.5,29.28,SSW,202,0.0,0.0,81,0.00,,,-99.99,VWS V12.07,2013-05-21 06:00:00,
2013-05-21 01:05:00,56.4,50.7,29.28,SSW,202,0.0,0.0,81,0.00,,,-99.99,VWS V12.07,2013-05-21 06:05:00,
2013-05-21 01:10:00,56.4,51.0,29.28,SSW,202,0.0,0.0,82,0.00,,,-99.99,VWS V12.07,2013-05-21 06:10:00,
2013-05-21 01:15:00,56.4,51.0,29.27,SSW,202,0.0,0.0,82,0.00,,,-99.99,VWS V12.07,2013-05-21 06:15:00,
2013-05-21 01:20:00,56.4,51.0,29.27,SSW,202,0.0,0.0,82,0.00,,,-99.99,VWS V12.07,2013-05-21 06:20:00,
2013-05-21 01:25:00,56.6,51.2,29.28,SSW,202,0.0,0.0,82,0.00,,,-99.99,VWS V12.07,2013-05-21 06:25:00,
2013-05-21 01:30:00,56.8,51.7,29.27,SSW,202,0.0,0.0,83,0.00,,,-99.99,VWS V12.07,2013-05-21 06:30:00,
2013-05-21 01:35:00,56.8,51.7,29.27,SSW,202,0.0,0.0,83,0.00,,,-99.99,VWS V12.07,2013-05-21 06:35:00,
2013-05-21 01:40:00,57.0,51.9,29.27,SSW,202,0.0,0.0,83,0.00,,,-99.99,VWS V12.07,2013-05-21 06:40:00,
2013-05-21 01:45:00,57.0,51.9,29.27,ESE,112,0.0,0.0,83,0.00,,,-99.99,VWS V12.07,2013-05-21 06:45:00,
2013-05-21 01:50:00,57.3,52.5,29.27,ENE,68,0.0,0.0,84,0.00,,,-99.99,VWS V12.07,2013-05-21 06:50:00,
2013-05-21 01:55:00,57.5,52.7,29.27,NE,45,0.4,1.1,84,0.00,,,-99.99,VWS V12.07,2013-05-21 06:55:00,
2013-05-21 02:00:00,57.7,52.9,29.26,NE,45,2.0,2.6,84,0.00,,,-99.99,VWS V12.07,2013-05-21 07:00:00,
2013-05-21 02:05:00,57.9,53.1,29.26,NE,45,1.1,1.7,84,0.00,,,-99.99,VWS V12.07,2013-05-21 07:05:00,
2013-05-21 02:10:00,58.1,53.3,29.25,NE,45,1.1,6.7,84,0.00,,,-99.99,VWS V12.07,2013-05-21 07:10:00,
2013-05-21 02:15:00,58.1,53.3,29.26,NE,45,1.1,6.7,84,0.00,,,-99.99,VWS V12.07,2013-05-21 07:15:00,
2013-05-21 02:20:00,58.2,53.4,29.26,NE,45,0.4,3.1,84,0.00,,,-99.99,VWS V12.07,2013-05-21 07:20:00,
2013-05-21 02:25:00,58.2,53.1,29.26,NE,45,3.3,3.3,83,0.00,,,-99.99,VWS V12.07,2013-05-21 07:25:00,
2013-05-21 02:30:00,58.2,53.1,29.26,NE,45,0.8,3.3,83,0.00,,,-99.99,VWS V12.07,2013-05-21 07:30:00,
2013-05-21 02:35:00,58.4,53.3,29.25,NE,45,2.4,2.4,83,0.00,,,-99.99,VWS V12.07,2013-05-21 07:35:00,
2013-05-21 02:40:00,58.4,53.3,29.25,NE,45,1.5,3.1,83,0.00,,,-99.99,VWS V12.07,2013-05-21 07:40:00,
2013-05-21 02:45:00,58.6,53.5,29.25,NE,45,0.8,3.8,83,0.00,,,-99.99,VWS V12.07,2013-05-21 07:45:00,
2013-05-21 02:50:00,58.6,53.5,29.26,NE,45,0.0,2.2,83,0.00,,,-99.99,VWS V12.07,2013-05-21 07:50:00,
2013-05-21 02:55:00,58.6,53.5,29.26,ENE,68,0.0,2.2,83,0.02,,,-99.99,VWS V12.07,2013-05-21 07:55:00,
2013-05-21 03:00:00,58.6,53.5,29.25,ENE,68,0.0,2.2,83,0.04,,,-99.99,VWS V12.07,2013-05-21 08:00:00,
2013-05-21 03:05:00,58.2,53.1,29.25,NE,45,0.0,0.0,83,0.04,,,-99.99,VWS V12.07,2013-05-21 08:05:00,
2013-05-21 03:10:00,58.1,53.3,29.24,NE,45,0.0,0.0,84,0.04,,,-99.99,VWS V12.07,2013-05-21 08:10:00,
2013-05-21 03:15:00,57.9,53.1,29.24,NE,45,0.0,0.0,84,0.04,,,-99.99,VWS V12.07,2013-05-21 08:15:00,
2013-05-21 03:20:00,57.7,52.9,29.23,NE,45,3.1,3.1,84,0.04,,,-99.99,VWS V12.07,2013-05-21 08:20:00,
2013-05-21 03:25:00,57.5,52.7,29.22,NE,45,1.7,3.1,84,0.04,,,-99.99,VWS V12.07,2013-05-21 08:25:00,
2013-05-21 03:30:00,57.5,52.7,29.21,NE,45,3.8,3.8,84,0.04,,,-99.99,VWS V12.07,2013-05-21 08:30:00,
2013-05-21 03:35:00,57.3,52.8,29.21,NE,45,0.0,3.5,85,0.04,,,-99.99,VWS V12.07,2013-05-21 08:35:00,
2013-05-21 03:40:00,57.3,53.2,29.21,NE,45,0.0,3.5,86,0.04,,,-99.99,VWS V12.07,2013-05-21 08:40:00,
2013-05-21 03:45:00,57.0,52.9,29.22,NE,45,0.0,3.5,86,0.04,,,-99.99,VWS V12.07,2013-05-21 08:45:00,
2013-05-21 03:50:00,57.0,52.9,29.23,NE,45,0.0,0.0,86,0.06,,,-99.99,VWS V12.07,2013-05-21 08:50:00,
2013-05-21 03:55:00,57.0,52.9,29.26,NE,45,0.0,0.0,86,0.02,,,-99.99,VWS V12.07,2013-05-21 08:55:00,
2013-05-21 04:00:00,57.0,52.9,29.27,NNE,22,0.0,0.0,86,0.08,,,-99.99,VWS V12.07,2013-05-21 09:00:00,
2013-05-21 04:05:00,57.0,52.9,29.27,East,90,0.0,0.0,86,0.12,,,-99.99,VWS V12.07,2013-05-21 09:05:00,
2013-05-21 04:15:00,57.0,53.2,29.25,ESE,112,0.0,2.9,87,0.18,,,-99.99,VWS V12.07,2013-05-21 09:15:00,
2013-05-21 04:20:00,57.0,53.2,29.25,ESE,112,0.0,0.0,87,0.18,,,-99.99,VWS V12.07,2013-05-21 09:20:00,
2013-05-21 04:25:00,57.0,53.2,29.25,NE,45,1.1,1.1,87,0.20,,,-99.99,VWS V12.07,2013-05-21 09:25:00,
2013-05-21 04:30:00,57.0,53.2,29.24,NE,45,0.0,1.1,87,0.22,,,-99.99,VWS V12.07,2013-05-21 09:30:00,
2013-05-21 04:35:00,57.2,53.4,29.24,NE,45,0.0,4.2,87,0.24,,,-99.99,VWS V12.07,2013-05-21 09:35:00,
2013-05-21 04:40:00,57.2,53.7,29.24,NE,45,0.0,4.2,88,0.24,,,-99.99,VWS V12.07,2013-05-21 09:40:00,
2013-05-21 04:45:00,57.0,53.5,29.23,NE,45,0.0,4.2,88,0.24,,,-99.99,VWS V12.07,2013-05-21 09:45:00,
2013-05-21 04:50:00,57.0,53.5,29.23,NE,45,0.0,5.3,88,0.22,,,-99.99,VWS V12.07,2013-05-21 09:50:00,
2013-05-21 04:55:00,56.8,53.3,29.23,NE,45,0.0,5.3,88,0.22,,,-99.99,VWS V12.07,2013-05-21 09:55:00,
2013-05-21 05:00:00,56.6,53.1,29.23,NE,45,0.0,5.3,88,0.14,,,-99.99,VWS V12.07,2013-05-21 10:00:00,
2013-05-21 05:05:00,56.4,52.9,29.23,NE,45,0.0,1.1,88,0.12,,,-99.99,VWS V12.07,2013-05-21 10:05:00,
2013-05-21 05:10:00,56.3,52.8,29.22,NE,45,0.0,1.1,88,0.06,,,-99.99,VWS V12.07,2013-05-21 10:10:00,
2013-05-21 05:15:00,56.1,52.6,29.22,NE,45,3.3,3.3,88,0.06,,,-99.99,VWS V12.07,2013-05-21 10:15:00,
2013-05-21 05:20:00,55.9,52.4,29.22,NE,45,1.3,5.3,88,0.06,,,-99.99,VWS V12.07,2013-05-21 10:20:00,
2013-05-21 05:25:00,55.9,52.4,29.22,NE,45,0.0,5.3,88,0.04,,,-99.99,VWS V12.07,2013-05-21 10:25:00,
2013-05-21 05:30:00,55.9,52.4,29.22,NE,45,1.7,5.3,88,0.00,,,-99.99,VWS V12.07,2013-05-21 10:30:00,
2013-05-21 05:35:00,55.7,52.2,29.22,ENE,68,0.0,1.7,88,0.00,,,-99.99,VWS V12.07,2013-05-21 10:35:00,
2013-05-21 05:40:00,55.7,52.5,29.22,NE,45,4.0,4.0,89,0.00,,,-99.99,VWS V12.07,2013-05-21 10:40:00,
2013-05-21 05:45:00,55.5,52.3,29.22,ENE,68,0.6,4.0,89,0.00,,,-99.99,VWS V12.07,2013-05-21 10:45:00,
2013-05-21 05:50:00,55.5,52.3,29.22,NE,45,0.0,0.6,89,0.00,,,-99.99,VWS V12.07,2013-05-21 10:50:00,
2013-05-21 05:55:00,55.4,52.2,29.22,NNE,22,4.6,4.6,89,0.00,,,-99.99,VWS V12.07,2013-05-21 10:55:00,
2013-05-21 06:00:00,55.2,52.0,29.22,NE,45,3.1,8.5,89,0.00,,,-99.99,VWS V12.07,2013-05-21 11:00:00,
2013-05-21 06:05:00,55.2,52.0,29.22,NE,45,4.6,4.6,89,0.00,,,-99.99,VWS V12.07,2013-05-21 11:05:00,
2013-05-21 06:10:00,55.2,52.0,29.23,ENE,68,2.0,4.6,89,0.00,,,-99.99,VWS V12.07,2013-05-21 11:10:00,
2013-05-21 06:15:00,55.2,52.0,29.23,NE,45,0.0,4.6,89,0.00,,,-99.99,VWS V12.07,2013-05-21 11:15:00,
2013-05-21 06:20:00,55.0,51.8,29.24,NE,45,0.0,0.0,89,0.00,,,-99.99,VWS V12.07,2013-05-21 11:20:00,
2013-05-21 06:25:00,55.0,51.8,29.24,NE,45,1.5,1.5,89,0.00,,,-99.99,VWS V12.07,2013-05-21 11:25:00,
2013-05-21 06:30:00,55.0,51.8,29.24,NE,45,0.0,1.5,89,0.00,,,-99.99,VWS V12.07,2013-05-21 11:30:00,
2013-05-21 06:35:00,54.8,51.6,29.24,NE,45,0.0,0.0,89,0.00,,,-99.99,VWS V12.07,2013-05-21 11:35:00,
2013-05-21 06:40:00,54.8,51.6,29.24,NE,45,0.0,0.0,89,0.00,,,-99.99,VWS V12.07,2013-05-21 11:40:00,
2013-05-21 06:45:00,54.8,51.6,29.24,NE,45,0.0,0.0,89,0.00,,,-99.99,VWS V12.07,2013-05-21 11:45:00,
2013-05-21 06:50:00,54.6,51.4,29.24,NE,45,0.0,0.0,89,0.00,,,-99.99,VWS V12.07,2013-05-21 11:50:00,
2013-05-21 06:55:00,54.8,51.6,29.24,NE,45,0.0,0.0,89,0.00,,,-99.99,VWS V12.07,2013-05-21 11:55:00,
2013-05-21 07:00:00,54.6,51.4,29.24,ENE,68,0.0,0.0,89,0.00,,,-99.99,VWS V12.07,2013-05-21 12:00:00,
2013-05-21 07:05:00,54.8,51.9,29.24,ENE,68,0.0,0.0,90,0.00,,,-99.99,VWS V12.07,2013-05-21 12:05:00,
2013-05-21 07:10:00,54.8,51.9,29.24,ENE,68,0.0,0.0,90,0.00,,,-99.99,VWS V12.07,2013-05-21 12:10:00,
2013-05-21 07:15:00,55.0,52.1,29.24,ENE,68,0.0,0.0,90,0.00,,,-99.99,VWS V12.07,2013-05-21 12:15:00,
2013-05-21 07:20:00,55.0,52.1,29.24,ENE,68,0.0,0.0,90,0.00,,,-99.99,VWS V12.07,2013-05-21 12:20:00,
2013-05-21 07:25:00,55.0,52.1,29.24,ENE,68,0.0,0.0,90,0.00,,,-99.99,VWS V12.07,2013-05-21 12:25:00,
2013-05-21 07:30:00,55.0,52.1,29.24,ENE,68,0.0,0.0,90,0.00,,,-99.99,VWS V12.07,2013-05-21 12:30:00,
2013-05-21 07:35:00,55.2,52.3,29.24,ESE,112,0.0,0.0,90,0.00,,,-99.99,VWS V12.07,2013-05-21 12:35:00,
2013-05-21 07:40:00,55.2,52.3,29.24,ENE,68,0.0,0.0,90,0.00,,,-99.99,VWS V12.07,2013-05-21 12:40:00,
2013-05-21 07:45:00,55.2,52.3,29.24,ENE,68,0.0,0.0,90,0.00,,,-99.99,VWS V12.07,2013-05-21 12:45:00,
2013-05-21 07:50:00,55.2,52.3,29.24,ENE,68,0.0,0.0,90,0.00,,,-99.99,VWS V12.07,2013-05-21 12:50:00,
2013-05-21 07:55:00,55.2,52.3,29.24,ENE,68,0.0,0.0,90,0.00,,,-99.99,VWS V12.07,2013-05-21 12:55:00,
2013-05-21 08:00:00,55.2,52.3,29.24,ENE,68,0.0,0.0,90,0.00,,,-99.99,VWS V12.07,2013-05-21 13:00:00,
2013-05-21 08:05:00,55.4,52.5,29.25,ENE,68,0.0,0.0,90,0.00,,,-99.99,VWS V12.07,2013-05-21 13:05:00,
2013-05-21 08:10:00,55.4,52.5,29.24,ENE,68,0.0,0.0,90,0.00,,,-99.99,VWS V12.07,2013-05-21 13:10:00,
2013-05-21 08:15:00,55.7,52.8,29.24,SSW,202,0.0,0.0,90,0.00,,,-99.99,VWS V12.07,2013-05-21 13:15:00,
2013-05-21 08:20:00,55.7,52.8,29.24,SSW,202,0.0,0.0,90,0.00,,,-99.99,VWS V12.07,2013-05-21 13:20:00,
2013-05-21 08:25:00,56.1,53.2,29.24,SSW,202,0.0,0.0,90,0.00,,,-99.99,VWS V12.07,2013-05-21 13:25:00,
2013-05-21 08:30:00,56.4,53.5,29.24,SSW,202,0.0,0.0,90,0.00,,,-99.99,VWS V12.07,2013-05-21 13:30:00,
2013-05-21 08:35:00,56.8,53.9,29.24,SSW,202,0.0,0.0,90,0.00,,,-99.99,VWS V12.07,2013-05-21 13:35:00,
2013-05-21 08:40:00,57.0,54.1,29.24,West,270,0.0,0.0,90,0.00,,,-99.99,VWS V12.07,2013-05-21 13:40:00,
2013-05-21 08:45:00,57.7,54.8,29.24,West,270,0.0,0.0,90,0.00,,,-99.99,VWS V12.07,2013-05-21 13:45:00,
2013-05-21 08:50:00,58.2,55.3,29.24,West,270,0.0,0.0,90,0.00,,,-99.99,VWS V12.07,2013-05-21 13:50:00,
2013-05-21 08:55:00,58.8,55.9,29.24,West,270,0.0,0.0,90,0.00,,,-99.99,VWS V12.07,2013-05-21 13:55:00,
2013-05-21 09:00:00,58.8,55.9,29.24,West,270,0.0,0.0,90,0.00,,,-99.99,VWS V12.07,2013-05-21 14:00:00,
2013-05-21 09:05:00,59.7,56.8,29.24,SW,225,0.0,0.0,90,0.00,,,-99.99,VWS V12.07,2013-05-21 14:05:00,
2013-05-21 09:10:00,60.0,57.1,29.24,SW,225,7.6,7.6,90,0.00,,,-99.99,VWS V12.07,2013-05-21 14:10:00,
2013-05-21 09:15:00,60.6,57.7,29.24,SSW,202,0.0,7.6,90,0.00,,,-99.99,VWS V12.07,2013-05-21 14:15:00,
2013-05-21 09:20:00,60.9,58.0,29.24,SSW,202,0.0,4.4,90,0.00,,,-99.99,VWS V12.07,2013-05-21 14:20:00,
2013-05-21 09:25:00,61.3,58.0,29.25,SSW,202,6.0,6.0,89,0.00,,,-99.99,VWS V12.07,2013-05-21 14:25:00,
2013-05-21 09:30:00,61.7,58.4,29.25,SW,225,0.0,6.0,89,0.00,,,-99.99,VWS V12.07,2013-05-21 14:30:00,
2013-05-21 09:35:00,61.8,58.2,29.25,SSW,202,6.2,6.2,88,0.00,,,-99.99,VWS V12.07,2013-05-21 14:35:00,
2013-05-21 09:40:00,62.2,58.6,29.25,SW,225,3.1,6.2,88,0.00,,,-99.99,VWS V12.07,2013-05-21 14:40:00,
2013-05-21 09:45:00,62.4,58.5,29.25,SSW,202,3.8,6.2,87,0.00,,,-99.99,VWS V12.07,2013-05-21 14:45:00,
2013-05-21 09:50:00,62.9,58.7,29.25,SW,225,0.6,1.3,86,0.00,,,-99.99,VWS V12.07,2013-05-21 14:50:00,
2013-05-21 09:55:00,63.1,58.5,29.25,SW,225,1.1,6.2,85,0.00,,,-99.99,VWS V12.07,2013-05-21 14:55:00,
2013-05-21 10:05:00,63.3,58.1,29.25,SW,225,1.7,5.1,83,0.00,,,-99.99,VWS V12.07,2013-05-21 15:05:00,
2013-05-21 10:10:00,63.3,58.1,29.25,SW,225,3.3,6.2,83,0.00,,,-99.99,VWS V12.07,2013-05-21 15:10:00,
2013-05-21 10:15:00,63.3,57.7,29.25,SW,225,1.1,6.2,82,0.00,,,-99.99,VWS V12.07,2013-05-21 15:15:00,
2013-05-21 10:20:00,63.3,57.7,29.25,SW,225,0.0,1.1,82,0.00,,,-99.99,VWS V12.07,2013-05-21 15:20:00,
2013-05-21 10:25:00,63.3,57.7,29.25,SW,225,0.0,2.6,82,0.00,,,-99.99,VWS V12.07,2013-05-21 15:25:00,
2013-05-21 10:30:00,63.5,57.9,29.25,WSW,248,6.0,6.0,82,0.00,,,-99.99,VWS V12.07,2013-05-21 15:30:00,
2013-05-21 10:35:00,63.5,57.6,29.25,SW,225,4.4,4.4,81,0.00,,,-99.99,VWS V12.07,2013-05-21 15:35:00,
2013-05-21 10:40:00,63.3,57.4,29.26,SSW,202,5.3,6.7,81,0.00,,,-99.99,VWS V12.07,2013-05-21 15:40:00,
2013-05-21 10:45:00,63.3,57.0,29.25,SSW,202,3.5,6.7,80,0.00,,,-99.99,VWS V12.07,2013-05-21 15:45:00,
2013-05-21 10:50:00,63.1,57.2,29.25,SSW,202,2.4,3.1,81,0.00,,,-99.99,VWS V12.07,2013-05-21 15:50:00,
2013-05-21 10:55:00,63.3,57.4,29.26,SSW,202,3.1,3.3,81,0.00,,,-99.99,VWS V12.07,2013-05-21 15:55:00,
2013-05-21 11:00:00,63.5,57.2,29.26,South,180,0.6,3.3,80,0.00,,,-99.99,VWS V12.07,2013-05-21 16:00:00,
2013-05-21 11:05:00,63.6,57.3,29.26,SSW,202,2.4,2.4,80,0.00,,,-99.99,VWS V12.07,2013-05-21 16:05:00,
2013-05-21 11:10:00,64.0,57.7,29.26,SSW,202,0.6,2.4,80,0.00,,,-99.99,VWS V12.07,2013-05-21 16:10:00,
2013-05-21 11:15:00,64.2,57.6,29.26,SSW,202,0.0,2.4,79,0.00,,,-99.99,VWS V12.07,2013-05-21 16:15:00,
2013-05-21 11:20:00,64.9,58.2,29.26,SSW,202,0.0,0.4,79,0.00,,,-99.99,VWS V12.07,2013-05-21 16:20:00,
2013-05-21 11:25:00,65.3,58.3,29.26,SSW,202,0.0,2.9,78,0.00,,,-99.99,VWS V12.07,2013-05-21 16:25:00,
2013-05-21 11:30:00,65.4,58.4,29.26,SSW,202,2.6,3.5,78,0.00,,,-99.99,VWS V12.07,2013-05-21 16:30:00,
2013-05-21 11:35:00,65.8,58.4,29.26,SSW,202,2.9,2.9,77,0.00,,,-99.99,VWS V12.07,2013-05-21 16:35:00,
2013-05-21 11:40:00,66.0,58.6,29.26,SSW,202,3.1,3.1,77,0.00,,,-99.99,VWS V12.07,2013-05-21 16:40:00,
2013-05-21 11:45:00,65.8,58.0,29.26,SSW,202,3.8,3.8,76,0.00,,,-99.99,VWS V12.07,2013-05-21 16:45:00,
2013-05-21 11:50:00,65.8,58.0,29.25,SSW,202,1.3,3.8,76,0.00,,,-99.99,VWS V12.07,2013-05-21 16:50:00,
2013-05-21 11:55:00,65.6,57.8,29.25,SSW,202,0.0,3.8,76,0.00,,,-99.99,VWS V12.07,2013-05-21 16:55:00,
2013-05-21 12:00:00,65.4,57.7,29.25,SSW,202,2.6,3.8,76,0.00,,,-99.99,VWS V12.07,2013-05-21 17:00:00,
2013-05-21 12:10:00,66.0,58.2,29.25,SSW,202,3.8,3.8,76,0.00,,,-99.99,VWS V12.07,2013-05-21 17:10:00,
2013-05-21 12:15:00,66.0,57.9,29.25,SSW,202,5.5,5.5,75,0.00,,,-99.99,VWS V12.07,2013-05-21 17:15:00,
2013-05-21 12:20:00,66.0,57.5,29.25,SSW,202,0.0,5.5,74,0.00,,,-99.99,VWS V12.07,2013-05-21 17:20:00,
2013-05-21 12:25:00,66.0,57.5,29.24,SW,225,3.1,5.5,74,0.00,,,-99.99,VWS V12.07,2013-05-21 17:25:00,
2013-05-21 12:30:00,66.0,57.5,29.24,SW,225,0.0,5.5,74,0.00,,,-99.99,VWS V12.07,2013-05-21 17:30:00,
2013-05-21 12:35:00,66.2,57.7,29.24,SSW,202,1.5,4.0,74,0.00,,,-99.99,VWS V12.07,2013-05-21 17:35:00,
2013-05-21 12:40:00,66.3,57.4,29.24,SSW,202,0.0,4.0,73,0.00,,,-99.99,VWS V12.07,2013-05-21 17:40:00,
2013-05-21 12:45:00,66.5,57.6,29.24,SSW,202,0.0,4.0,73,0.00,,,-99.99,VWS V12.07,2013-05-21 17:45:00,
2013-05-21 12:50:00,66.5,57.6,29.24,SSW,202,0.0,0.0,73,0.00,,,-99.99,VWS V12.07,2013-05-21 17:50:00,
2013-05-21 12:55:00,66.5,57.6,29.24,SSW,202,0.0,1.1,73,0.00,,,-99.99,VWS V12.07,2013-05-21 17:55:00,
2013-05-21 13:00:00,66.3,57.4,29.24,SSW,202,0.0,1.1,73,0.00,,,-99.99,VWS V12.07,2013-05-21 18:00:00,
2013-05-21 13:05:00,66.2,57.3,29.24,SSW,202,0.0,0.0,73,0.00,,,-99.99,VWS V12.07,2013-05-21 18:05:00,
2013-05-21 13:10:00,66.0,57.5,29.24,SSW,202,0.0,2.9,74,0.00,,,-99.99,VWS V12.07,2013-05-21 18:10:00,
2013-05-21 13:15:00,65.8,57.3,29.24,SSW,202,3.1,3.1,74,0.00,,,-99.99,VWS V12.07,2013-05-21 18:15:00,
2013-05-21 13:20:00,65.4,56.9,29.24,SSW,202,0.0,3.1,74,0.00,,,-99.99,VWS V12.07,2013-05-21 18:20:00,
2013-05-21 13:25:00,65.1,56.6,29.24,SSW,202,0.0,3.1,74,0.02,,,-99.99,VWS V12.07,2013-05-21 18:25:00,
2013-05-21 13:30:00,64.2,56.5,29.24,SSW,202,0.0,3.1,76,0.02,,,-99.99,VWS V12.07,2013-05-21 18:30:00,
2013-05-21 13:35:00,64.0,56.3,29.25,SSW,202,0.0,0.0,76,0.06,,,-99.99,VWS V12.07,2013-05-21 18:35:00,
2013-05-21 13:40:00,63.3,56.0,29.25,SSW,202,0.0,0.0,77,0.08,,,-99.99,VWS V12.07,2013-05-21 18:40:00,
2013-05-21 13:45:00,62.9,55.9,29.25,SSW,202,0.0,0.0,78,0.08,,,-99.99,VWS V12.07,2013-05-21 18:45:00,
2013-05-21 13:50:00,62.4,55.5,29.25,SSW,202,0.0,0.0,78,0.10,,,-99.99,VWS V12.07,2013-05-21 18:50:00,
2013-05-21 13:55:00,62.2,55.6,29.25,SSW,202,0.0,0.0,79,0.10,,,-99.99,VWS V12.07,2013-05-21 18:55:00,
2013-05-21 14:00:00,62.0,55.4,29.25,SSW,202,0.0,0.0,79,0.10,,,-99.99,VWS V12.07,2013-05-21 19:00:00,
2013-05-21 14:10:00,61.8,55.9,29.25,SSW,202,0.0,0.0,81,0.10,,,-99.99,VWS V12.07,2013-05-21 19:10:00,
2013-05-21 14:15:00,61.8,55.9,29.26,SSW,202,0.0,0.0,81,0.12,,,-99.99,VWS V12.07,2013-05-21 19:15:00,
2013-05-21 14:20:00,61.8,55.9,29.25,SSW,202,0.0,0.0,81,0.12,,,-99.99,VWS V12.07,2013-05-21 19:20:00,
2013-05-21 14:25:00,62.2,56.6,29.25,SSW,202,0.0,0.0,82,0.10,,,-99.99,VWS V12.07,2013-05-21 19:25:00,
2013-05-21 14:30:00,62.2,56.6,29.25,SSW,202,0.0,0.0,82,0.06,,,-99.99,VWS V12.07,2013-05-21 19:30:00,
2013-05-21 14:35:00,62.4,56.8,29.25,SSW,202,0.0,0.0,82,0.06,,,-99.99,VWS V12.07,2013-05-21 19:35:00,
2013-05-21 14:40:00,62.4,57.2,29.26,SSW,202,1.1,1.1,83,0.04,,,-99.99,VWS V12.07,2013-05-21 19:40:00,
2013-05-21 14:45:00,62.4,57.2,29.26,SSW,202,0.0,1.1,83,0.02,,,-99.99,VWS V12.07,2013-05-21 19:45:00,
2013-05-21 14:50:00,62.4,57.2,29.26,SSW,202,0.0,0.0,83,0.02,,,-99.99,VWS V12.07,2013-05-21 19:50:00,
2013-05-21 14:55:00,62.2,57.0,29.26,SSW,202,0.0,0.0,83,0.02,,,-99.99,VWS V12.07,2013-05-21 19:55:00,
2013-05-21 15:00:00,62.0,56.8,29.26,SSW,202,0.0,0.0,83,0.02,,,-99.99,VWS V12.07,2013-05-21 20:00:00,
2013-05-21 15:05:00,62.2,57.0,29.26,SSW,202,0.0,0.0,83,0.02,,,-99.99,VWS V12.07,2013-05-21 20:05:00,
2013-05-21 15:10:00,62.2,57.3,29.26,SSW,202,0.0,0.0,84,0.00,,,-99.99,VWS V12.07,2013-05-21 20:10:00,
2013-05-21 15:15:00,62.2,57.6,29.26,SSW,202,0.0,0.0,85,0.00,,,-99.99,VWS V12.07,2013-05-21 20:15:00,
2013-05-21 15:20:00,62.2,57.6,29.26,NE,45,0.6,1.1,85,0.00,,,-99.99,VWS V12.07,2013-05-21 20:20:00,
2013-05-21 15:25:00,62.2,57.6,29.26,NE,45,0.0,1.1,85,0.00,,,-99.99,VWS V12.07,2013-05-21 20:25:00,
2013-05-21 15:30:00,62.4,57.8,29.25,NE,45,0.0,1.7,85,0.00,,,-99.99,VWS V12.07,2013-05-21 20:30:00,
2013-05-21 15:35:00,62.4,58.2,29.25,NE,45,0.0,1.1,86,0.00,,,-99.99,VWS V12.07,2013-05-21 20:35:00,
2013-05-21 15:40:00,62.6,58.4,29.25,NE,45,0.0,1.1,86,0.00,,,-99.99,VWS V12.07,2013-05-21 20:40:00,
2013-05-21 15:45:00,62.7,58.5,29.25,NE,45,0.0,2.2,86,0.00,,,-99.99,VWS V12.07,2013-05-21 20:45:00,
2013-05-21 15:50:00,63.1,58.8,29.25,NE,45,0.0,0.6,86,0.00,,,-99.99,VWS V12.07,2013-05-21 20:50:00,
2013-05-21 15:55:00,63.1,58.8,29.25,NE,45,0.0,0.6,86,0.00,,,-99.99,VWS V12.07,2013-05-21 20:55:00,
2013-05-21 16:00:00,63.5,59.2,29.25,NE,45,2.4,5.1,86,0.00,,,-99.99,VWS V12.07,2013-05-21 21:00:00,
2013-05-21 16:05:00,63.6,59.3,29.25,NE,45,4.2,4.2,86,0.00,,,-99.99,VWS V12.07,2013-05-21 21:05:00,
2013-05-21 16:15:00,64.0,59.4,29.25,NE,45,4.6,4.6,85,0.00,,,-99.99,VWS V12.07,2013-05-21 21:15:00,
2013-05-21 16:20:00,64.0,59.1,29.25,NE,45,1.7,4.6,84,0.00,,,-99.99,VWS V12.07,2013-05-21 21:20:00,
2013-05-21 16:25:00,64.0,59.1,29.25,NE,45,0.0,4.6,84,0.00,,,-99.99,VWS V12.07,2013-05-21 21:25:00,
2013-05-21 16:30:00,64.0,59.1,29.25,NE,45,0.0,4.6,84,0.00,,,-99.99,VWS V12.07,2013-05-21 21:30:00,
2013-05-21 16:35:00,64.0,59.1,29.25,NE,45,0.0,0.0,84,0.00,,,-99.99,VWS V12.07,2013-05-21 21:35:00,
2013-05-21 16:40:00,64.0,59.1,29.25,NE,45,0.0,0.0,84,0.00,,,-99.99,VWS V12.07,2013-05-21 21:40:00,
2013-05-21 16:50:00,64.2,59.3,29.25,NE,45,0.0,1.7,84,0.00,,,-99.99,VWS V12.07,2013-05-21 21:50:00,
2013-05-21 16:55:00,64.5,59.6,29.25,NE,45,0.0,1.7,84,0.00,,,-99.99,VWS V12.07,2013-05-21 21:55:00,
2013-05-21 17:00:00,64.5,59.2,29.25,NE,45,0.0,1.7,83,0.00,,,-99.99,VWS V12.07,2013-05-21 22:00:00,
2013-05-21 17:05:00,64.4,59.1,29.26,NE,45,0.0,0.0,83,0.00,,,-99.99,VWS V12.07,2013-05-21 22:05:00,
2013-05-21 17:10:00,64.2,58.9,29.26,NE,45,0.0,0.0,83,0.00,,,-99.99,VWS V12.07,2013-05-21 22:10:00,
2013-05-21 17:15:00,64.2,58.9,29.26,NE,45,1.3,1.3,83,0.00,,,-99.99,VWS V12.07,2013-05-21 22:15:00,
2013-05-21 17:20:00,64.2,58.9,29.26,NE,45,0.0,1.3,83,0.00,,,-99.99,VWS V12.07,2013-05-21 22:20:00,
2013-05-21 17:25:00,64.2,58.9,29.26,NE,45,0.0,1.3,83,0.00,,,-99.99,VWS V12.07,2013-05-21 22:25:00,
2013-05-21 17:30:00,64.0,58.7,29.26,NE,45,0.0,1.3,83,0.00,,,-99.99,VWS V12.07,2013-05-21 22:30:00,
2013-05-21 17:40:00,63.6,58.3,29.27,NE,45,0.0,0.0,83,0.00,,,-99.99,VWS V12.07,2013-05-21 22:40:00,
2013-05-21 17:45:00,63.6,58.3,29.27,NE,45,0.0,0.0,83,0.00,,,-99.99,VWS V12.07,2013-05-21 22:45:00,
2013-05-21 17:50:00,63.6,58.3,29.27,NE,45,0.0,0.0,83,0.00,,,-99.99,VWS V12.07,2013-05-21 22:50:00,
2013-05-21 17:55:00,64.0,58.7,29.27,NE,45,0.0,0.2,83,0.00,,,-99.99,VWS V12.07,2013-05-21 22:55:00,
2013-05-21 18:00:00,64.0,58.7,29.27,West,270,0.0,0.4,83,0.00,,,-99.99,VWS V12.07,2013-05-21 23:00:00,
2013-05-21 18:10:00,63.3,57.7,29.28,NNW,338,0.0,1.7,82,0.00,,,-99.99,VWS V12.07,2013-05-21 23:10:00,
2013-05-21 18:15:00,62.7,57.1,29.28,NNW,338,0.0,1.7,82,0.00,,,-99.99,VWS V12.07,2013-05-21 23:15:00,
2013-05-21 18:20:00,62.4,57.2,29.28,NNW,338,0.0,0.0,83,0.00,,,-99.99,VWS V12.07,2013-05-21 23:20:00,
2013-05-21 18:25:00,62.2,57.0,29.28,NNW,338,0.0,0.0,83,0.00,,,-99.99,VWS V12.07,2013-05-21 23:25:00,
2013-05-21 18:30:00,61.7,56.5,29.28,NNW,338,0.0,0.0,83,0.00,,,-99.99,VWS V12.07,2013-05-21 23:30:00,
2013-05-21 18:35:00,61.5,56.3,29.28,NNW,338,0.0,0.0,83,0.00,,,-99.99,VWS V12.07,2013-05-21 23:35:00,
2013-05-21 18:40:00,61.3,56.1,29.28,NNW,338,2.2,2.2,83,0.00,,,-99.99,VWS V12.07,2013-05-21 23:40:00,
2013-05-21 18:45:00,60.9,56.0,29.28,NNW,338,0.0,2.2,84,0.00,,,-99.99,VWS V12.07,2013-05-21 23:45:00,
2013-05-21 18:50:00,60.8,55.9,29.29,NNW,338,0.0,0.0,84,0.00,,,-99.99,VWS V12.07,2013-05-21 23:50:00,
2013-05-21 18:55:00,60.6,55.8,29.29,NNW,338,0.0,0.0,84,0.00,,,-99.99,VWS V12.07,2013-05-21 23:55:00,
2013-05-21 19:00:00,60.4,55.5,29.28,NNW,338,0.0,0.0,84,0.00,,,-99.99,VWS V12.07,2013-05-22 00:00:00,
2013-05-21 19:05:00,60.4,55.5,29.29,NNW,338,0.0,0.0,84,0.00,,,-99.99,VWS V12.07,2013-05-22 00:05:00,
2013-05-21 19:10:00,60.0,55.5,29.28,NNW,338,0.0,0.0,85,0.00,,,-99.99,VWS V12.07,2013-05-22 00:10:00,
2013-05-21 19:15:00,60.0,55.5,29.29,NNW,338,0.0,0.0,85,0.00,,,-99.99,VWS V12.07,2013-05-22 00:15:00,
2013-05-21 19:20:00,59.9,55.4,29.28,NNW,338,0.0,0.0,85,0.00,,,-99.99,VWS V12.07,2013-05-22 00:20:00,
2013-05-21 19:25:00,59.7,55.2,29.28,NNW,338,2.4,2.4,85,0.00,,,-99.99,VWS V12.07,2013-05-22 00:25:00,
2013-05-21 19:30:00,59.5,55.0,29.29,NNW,338,0.0,2.4,85,0.00,,,-99.99,VWS V12.07,2013-05-22 00:30:00,
2013-05-21 19:35:00,59.5,55.0,29.28,NNW,338,0.0,0.0,85,0.00,,,-99.99,VWS V12.07,2013-05-22 00:35:00,
2013-05-21 19:40:00,59.5,55.3,29.29,NNW,338,0.0,0.0,86,0.00,,,-99.99,VWS V12.07,2013-05-22 00:40:00,
2013-05-21 19:50:00,59.3,55.1,29.29,NNW,338,0.0,0.0,86,0.00,,,-99.99,VWS V12.07,2013-05-22 00:50:00,
2013-05-21 19:55:00,59.1,54.9,29.29,NNW,338,0.0,0.0,86,0.00,,,-99.99,VWS V12.07,2013-05-22 00:55:00,
2013-05-21 20:00:00,59.1,54.9,29.29,NNW,338,0.0,0.0,86,0.00,,,-99.99,VWS V12.07,2013-05-22 01:00:00,
2013-05-21 20:05:00,59.0,54.8,29.29,NNW,338,0.0,0.0,86,0.00,,,-99.99,VWS V12.07,2013-05-22 01:05:00,
2013-05-21 20:10:00,58.8,55.0,29.29,NNW,338,0.0,0.0,87,0.00,,,-99.99,VWS V12.07,2013-05-22 01:10:00,
2013-05-21 20:15:00,58.8,55.0,29.30,NNW,338,0.0,0.0,87,0.00,,,-99.99,VWS V12.07,2013-05-22 01:15:00,
2013-05-21 20:20:00,58.8,55.0,29.30,NNW,338,0.0,0.0,87,0.00,,,-99.99,VWS V12.07,2013-05-22 01:20:00,
2013-05-21 20:25:00,58.8,55.0,29.30,NNW,338,0.0,0.0,87,0.00,,,-99.99,VWS V12.07,2013-05-22 01:25:00,
2013-05-21 20:30:00,58.8,55.0,29.29,WNW,292,0.0,0.0,87,0.00,,,-99.99,VWS V12.07,2013-05-22 01:30:00,
2013-05-21 20:35:00,58.8,55.0,29.29,WNW,292,0.0,0.0,87,0.00,,,-99.99,VWS V12.07,2013-05-22 01:35:00,
2013-05-21 20:40:00,58.8,55.0,29.29,WNW,292,0.0,0.0,87,0.00,,,-99.99,VWS V12.07,2013-05-22 01:40:00,
2013-05-21 20:45:00,58.6,54.8,29.29,WNW,292,0.0,0.0,87,0.00,,,-99.99,VWS V12.07,2013-05-22 01:45:00,
2013-05-21 20:50:00,58.4,54.5,29.29,WNW,292,0.0,0.0,87,0.00,,,-99.99,VWS V12.07,2013-05-22 01:50:00,
2013-05-21 21:00:00,58.1,54.3,29.29,NW,315,0.0,0.0,87,0.00,,,-99.99,VWS V12.07,2013-05-22 02:00:00,
2013-05-21 21:10:00,57.9,54.4,29.30,NW,315,0.0,0.0,88,0.00,,,-99.99,VWS V12.07,2013-05-22 02:10:00,
2013-05-21 21:15:00,57.7,53.9,29.30,NW,315,0.0,0.0,87,0.00,,,-99.99,VWS V12.07,2013-05-22 02:15:00,
2013-05-21 21:20:00,57.5,53.7,29.31,NW,315,0.0,0.0,87,0.00,,,-99.99,VWS V12.07,2013-05-22 02:20:00,
2013-05-21 21:25:00,57.3,53.8,29.31,NW,315,0.0,0.0,88,0.00,,,-99.99,VWS V12.07,2013-05-22 02:25:00,
2013-05-21 21:30:00,57.3,53.8,29.31,NW,315,0.0,0.0,88,0.00,,,-99.99,VWS V12.07,2013-05-22 02:30:00,
2013-05-21 21:40:00,57.0,53.5,29.32,NW,315,0.0,0.0,88,0.00,,,-99.99,VWS V12.07,2013-05-22 02:40:00,
2013-05-21 21:45:00,56.8,53.3,29.31,NW,315,0.0,0.0,88,0.00,,,-99.99,VWS V12.07,2013-05-22 02:45:00,
2013-05-21 21:50:00,56.8,53.3,29.32,NW,315,0.0,0.0,88,0.00,,,-99.99,VWS V12.07,2013-05-22 02:50:00,
2013-05-21 21:55:00,56.4,52.9,29.32,NW,315,0.0,0.0,88,0.00,,,-99.99,VWS V12.07,2013-05-22 02:55:00,
2013-05-21 22:00:00,56.3,52.8,29.32,NW,315,0.0,0.0,88,0.00,,,-99.99,VWS V12.07,2013-05-22 03:00:00,
2013-05-21 22:05:00,56.3,52.8,29.33,NW,315,0.0,0.0,88,0.00,,,-99.99,VWS V12.07,2013-05-22 03:05:00,
2013-05-21 22:10:00,56.1,52.6,29.33,NW,315,0.0,0.0,88,0.00,,,-99.99,VWS V12.07,2013-05-22 03:10:00,
2013-05-21 22:15:00,55.9,52.4,29.33,NW,315,0.0,0.0,88,0.00,,,-99.99,VWS V12.07,2013-05-22 03:15:00,
2013-05-21 22:20:00,55.9,52.4,29.33,WNW,292,0.0,0.0,88,0.00,,,-99.99,VWS V12.07,2013-05-22 03:20:00,
2013-05-21 22:25:00,55.7,52.2,29.33,SW,225,0.0,0.0,88,0.00,,,-99.99,VWS V12.07,2013-05-22 03:25:00,
2013-05-21 22:30:00,55.5,52.0,29.34,SW,225,0.0,0.0,88,0.00,,,-99.99,VWS V12.07,2013-05-22 03:30:00,
2013-05-21 22:35:00,55.4,51.9,29.34,SW,225,0.0,0.0,88,0.00,,,-99.99,VWS V12.07,2013-05-22 03:35:00,
2013-05-21 22:40:00,55.2,51.7,29.34,SW,225,0.0,0.0,88,0.00,,,-99.99,VWS V12.07,2013-05-22 03:40:00,
2013-05-21 22:45:00,55.0,51.8,29.34,NE,45,0.0,0.0,89,0.00,,,-99.99,VWS V12.07,2013-05-22 03:45:00,
2013-05-21 22:50:00,54.8,51.6,29.33,NE,45,0.0,0.0,89,0.00,,,-99.99,VWS V12.07,2013-05-22 03:50:00,
2013-05-21 22:55:00,54.6,51.4,29.34,NE,45,0.0,0.0,89,0.00,,,-99.99,VWS V12.07,2013-05-22 03:55:00,
2013-05-21 23:00:00,54.5,51.3,29.33,NE,45,0.0,0.0,89,0.00,,,-99.99,VWS V12.07,2013-05-22 04:00:00,
2013-05-21 23:05:00,54.3,51.1,29.33,NE,45,0.0,0.0,89,0.00,,,-99.99,VWS V12.07,2013-05-22 04:05:00,
2013-05-21 23:10:00,54.3,51.1,29.33,NNE,22,0.0,0.0,89,0.00,,,-99.99,VWS V12.07,2013-05-22 04:10:00,
2013-05-21 23:15:00,54.1,50.9,29.33,NE,45,5.1,5.1,89,0.02,,,-99.99,VWS V12.07,2013-05-22 04:15:00,
2013-05-21 23:20:00,53.9,50.7,29.33,NNE,22,0.0,5.1,89,0.02,,,-99.99,VWS V12.07,2013-05-22 04:20:00,
2013-05-21 23:25:00,53.7,50.5,29.33,NE,45,0.0,5.1,89,0.02,,,-99.99,VWS V12.07,2013-05-22 04:25:00,
2013-05-21 23:30:00,53.4,50.2,29.33,NE,45,0.0,5.1,89,0.02,,,-99.99,VWS V12.07,2013-05-22 04:30:00,
2013-05-21 23:35:00,53.2,50.0,29.33,NE,45,0.0,0.0,89,0.02,,,-99.99,VWS V12.07,2013-05-22 04:35:00,
2013-05-21 23:40:00,53.2,50.0,29.33,NE,45,0.0,0.0,89,0.02,,,-99.99,VWS V12.07,2013-05-22 04:40:00,
2013-05-21 23:45:00,52.8,49.7,29.33,NE,45,0.0,0.0,89,0.02,,,-99.99,VWS V12.07,2013-05-22 04:45:00,
2013-05-21 23:50:00,52.8,49.7,29.33,NE,45,0.0,0.0,89,0.02,,,-99.99,VWS V12.07,2013-05-22 04:50:00,
2013-05-21 23:55:00,52.8,49.7,29.33,NE,45,0.0,0.0,89,0.02,,,-99.99,VWS V12.07,2013-05-22 04:55:00,